Terminal Aerodrome Forecast
Issued by NWS

Home | Current Version | Previous Version | Text Only | Print | Product List | Glossary On
Versions: 1 2 3 4 5 6 7 8 9 10 11 12 13 14
000
FTUS44 KTSA 291720
TAFMLC
TAF
KMLC 291720Z 2918/3018 VRB06KT P6SM FEW022
      TEMPO 2918/2922 5SM -TSRA BKN025CB
     FM300000 VRB03KT P6SM SCT050 BKN250 PROB30 3006/3012 5SM -TSRA
      BKN050CB
     FM301200 20005KT P6SM BKN050 PROB30 3012/3018 5SM -TSRA
      BKN025CB=

USA.gov is the U.S. government's official web portal to all federal, state and local government web resources and services.